Time;durP1;ratioP1;P1;durP2;ratioP2;P2;SDS_P1;SDS_P2;PMS_P1;PMS_P2;Temp;Humidity;BMP_temperature;BMP_pressure;BME280_temperature;BME280_humidity;BME280_pressure;Samples;Min_cycle;Max_cycle;Signal;HPM_P1;HPM_P2
2023/08/09 00:01:42;0.00;0.00;0.62;0.00;0.00;0.62;2.13;1.63;;;27.40;28.20;;;;;;2268420;61;20395;-58
2023/08/09 00:04:29;0.00;0.00;0.62;0.00;0.00;0.62;2.30;1.60;;;27.40;28.20;;;;;;2268116;61;20385;-61
2023/08/09 00:07:14;0.00;0.00;0.62;0.00;0.00;0.62;1.90;1.37;;;27.40;28.20;;;;;;2268475;61;20417;-60
2023/08/09 00:09:59;0.00;0.00;0.62;0.00;0.00;0.62;2.67;1.70;;;27.40;28.20;;;;;;2267773;61;20796;-59
2023/08/09 00:12:43;0.00;0.00;0.62;0.00;0.00;0.62;1.60;1.10;;;27.40;28.20;;;;;;2268001;61;20432;-59
2023/08/09 00:15:28;0.00;0.00;0.62;0.00;0.00;0.62;2.43;1.63;;;27.40;28.20;;;;;;2268239;61;20371;-56
2023/08/09 00:18:14;0.00;0.00;0.62;0.00;0.00;0.62;2.03;1.30;;;27.40;28.20;;;;;;2268282;61;20761;-57
2023/08/09 00:20:58;0.00;0.00;0.62;0.00;0.00;0.62;1.73;1.37;;;27.40;28.20;;;;;;2268275;61;20383;-62
2023/08/09 00:23:43;0.00;0.00;0.62;0.00;0.00;0.62;1.80;1.30;;;27.40;28.20;;;;;;2268409;61;20451;-59
2023/08/09 00:26:28;0.00;0.00;0.62;0.00;0.00;0.62;2.00;1.27;;;27.40;28.20;;;;;;2267726;61;20387;-57
2023/08/09 00:29:13;0.00;0.00;0.62;0.00;0.00;0.62;1.97;1.20;;;27.40;28.20;;;;;;2267916;61;20391;-57
2023/08/09 00:31:58;0.00;0.00;0.62;0.00;0.00;0.62;1.87;1.30;;;27.30;28.20;;;;;;2265140;61;20358;-61
2023/08/09 00:34:44;0.00;0.00;0.62;0.00;0.00;0.62;2.27;1.27;;;27.30;28.20;;;;;;2267748;61;20421;-56
2023/08/09 00:37:28;0.00;0.00;0.62;0.00;0.00;0.62;2.03;1.20;;;27.30;28.70;;;;;;2265218;61;20359;-57
2023/08/09 00:40:13;0.00;0.00;0.62;0.00;0.00;0.62;2.00;1.20;;;27.30;28.20;;;;;;2267848;61;20800;-59
2023/08/09 00:42:58;0.00;0.00;0.62;0.00;0.00;0.62;2.20;1.33;;;27.30;28.10;;;;;;2268188;61;20347;-59
2023/08/09 00:45:46;0.00;0.00;0.62;0.00;0.00;0.62;1.60;1.10;;;27.30;28.20;;;;;;2268237;61;20594;-57
2023/08/09 00:48:32;0.00;0.00;0.62;0.00;0.00;0.62;1.50;1.03;;;27.30;28.20;;;;;;2267188;61;20902;-57
2023/08/09 00:51:19;0.00;0.00;0.62;0.00;0.00;0.62;1.83;1.10;;;27.40;28.20;;;;;;2268128;61;20398;-58
2023/08/09 00:54:04;0.00;0.00;0.62;0.00;0.00;0.62;1.43;0.90;;;27.30;28.20;;;;;;2268383;61;20421;-56
2023/08/09 00:56:50;0.00;0.00;0.62;0.00;0.00;0.62;1.70;1.10;;;27.30;28.20;;;;;;2267923;61;20387;-59
2023/08/09 00:59:35;0.00;0.00;0.62;0.00;0.00;0.62;2.10;1.33;;;27.30;28.20;;;;;;2267795;61;20379;-58
2023/08/09 01:02:21;0.00;0.00;0.62;0.00;0.00;0.62;1.80;1.10;;;27.30;28.20;;;;;;2268161;61;20367;-57
2023/08/09 01:05:07;0.00;0.00;0.62;0.00;0.00;0.62;2.50;1.27;;;27.30;28.20;;;;;;2267924;61;20367;-59
2023/08/09 01:08:00;0.00;0.00;0.62;0.00;0.00;0.62;1.87;1.30;;;27.30;28.20;;;;;;2264847;61;20958;-59
2023/08/09 01:10:57;0.00;0.00;0.62;0.00;0.00;0.62;1.57;1.10;;;27.30;28.20;;;;;;2264049;61;20371;-58
2023/08/09 01:13:44;0.00;0.00;0.62;0.00;0.00;0.62;2.33;1.17;;;27.30;28.20;;;;;;2268151;61;20892;-55
2023/08/09 01:16:30;0.00;0.00;0.62;0.00;0.00;0.62;1.63;1.07;;;27.30;28.20;;;;;;2267891;61;20408;-64
2023/08/09 01:19:31;0.00;0.00;0.62;0.00;0.00;0.62;1.67;1.03;;;27.30;28.20;;;;;;2266817;61;20391;-56
2023/08/09 01:22:21;0.00;0.00;0.62;0.00;0.00;0.62;1.87;1.33;;;27.30;28.20;;;;;;2268135;61;20366;-58
2023/08/09 01:25:08;0.00;0.00;0.62;0.00;0.00;0.62;2.93;1.17;;;27.20;28.20;;;;;;2263684;61;20934;-60
2023/08/09 01:27:53;0.00;0.00;0.62;0.00;0.00;0.62;1.73;1.10;;;27.20;28.20;;;;;;2267655;61;20394;-60
2023/08/09 01:30:38;0.00;0.00;0.62;0.00;0.00;0.62;1.60;1.03;;;27.20;28.20;;;;;;2267933;61;20471;-57
2023/08/09 01:33:23;0.00;0.00;0.62;0.00;0.00;0.62;1.93;1.10;;;27.20;28.20;;;;;;2267418;61;20363;-59
2023/08/09 01:36:18;0.00;0.00;0.62;0.00;0.00;0.62;1.60;0.90;;;27.20;28.20;;;;;;2268210;61;20364;-60
2023/08/09 01:39:10;0.00;0.00;0.62;0.00;0.00;0.62;1.97;1.30;;;27.30;28.40;;;;;;2264160;61;20383;-56
2023/08/09 01:41:57;0.00;0.00;0.62;0.00;0.00;0.62;1.57;0.97;;;27.20;28.20;;;;;;2268081;61;20362;-60
2023/08/09 01:44:43;0.00;0.00;0.62;0.00;0.00;0.62;1.60;1.13;;;27.20;28.70;;;;;;2268051;61;20456;-61
2023/08/09 01:47:28;0.00;0.00;0.62;0.00;0.00;0.62;2.40;1.00;;;27.30;28.20;;;;;;2264450;61;20413;-59
2023/08/09 01:50:18;0.00;0.00;0.62;0.00;0.00;0.62;1.90;1.27;;;27.20;28.20;;;;;;2264273;61;20421;-58
2023/08/09 01:53:03;0.00;0.00;0.62;0.00;0.00;0.62;1.60;1.00;;;27.20;28.20;;;;;;2268073;61;20492;-59
2023/08/09 01:55:48;0.00;0.00;0.62;0.00;0.00;0.62;2.13;1.30;;;27.20;28.20;;;;;;2267713;61;20888;-57
2023/08/09 01:58:34;0.00;0.00;0.62;0.00;0.00;0.62;1.97;1.03;;;27.20;28.20;;;;;;2264463;61;20355;-59
2023/08/09 02:01:19;0.00;0.00;0.62;0.00;0.00;0.62;1.70;0.93;;;27.20;28.20;;;;;;2264560;61;21058;-59
2023/08/09 02:04:05;0.00;0.00;0.62;0.00;0.00;0.62;2.17;1.30;;;27.20;28.20;;;;;;2264797;61;20552;-61
2023/08/09 02:06:50;0.00;0.00;0.62;0.00;0.00;0.62;2.00;1.00;;;27.20;28.20;;;;;;2268584;61;20405;-59
2023/08/09 02:09:34;0.00;0.00;0.62;0.00;0.00;0.62;1.40;0.80;;;27.20;28.20;;;;;;2267704;61;20414;-60
2023/08/09 02:12:20;0.00;0.00;0.62;0.00;0.00;0.62;2.50;1.23;;;27.20;28.20;;;;;;2265334;61;20406;-58
2023/08/09 02:15:07;0.00;0.00;0.62;0.00;0.00;0.62;1.83;0.90;;;27.20;28.20;;;;;;2268767;61;20436;-59
2023/08/09 02:17:52;0.00;0.00;0.62;0.00;0.00;0.62;1.70;1.10;;;27.20;28.20;;;;;;2268212;61;20606;-54
2023/08/09 02:20:37;0.00;0.00;0.62;0.00;0.00;0.62;2.10;1.30;;;27.20;28.20;;;;;;2268502;61;20375;-57
2023/08/09 02:23:21;0.00;0.00;0.62;0.00;0.00;0.62;1.80;1.30;;;27.20;28.20;;;;;;2268699;61;20493;-57
2023/08/09 02:26:08;0.00;0.00;0.62;0.00;0.00;0.62;1.50;0.90;;;27.20;28.20;;;;;;2265176;61;20371;-57
2023/08/09 02:28:53;0.00;0.00;0.62;0.00;0.00;0.62;1.70;1.00;;;27.20;28.20;;;;;;2264875;61;20430;-55
2023/08/09 02:31:40;0.00;0.00;0.62;0.00;0.00;0.62;1.60;1.00;;;27.20;28.20;;;;;;2268473;61;20367;-60
2023/08/09 02:34:25;0.00;0.00;0.62;0.00;0.00;0.62;1.70;0.93;;;27.20;28.20;;;;;;2268771;61;20409;-56
2023/08/09 02:37:09;0.00;0.00;0.62;0.00;0.00;0.62;3.00;0.80;;;27.20;28.20;;;;;;2268906;61;20363;-57
2023/08/09 02:39:56;0.00;0.00;0.62;0.00;0.00;0.62;1.70;0.97;;;27.20;28.20;;;;;;2264437;61;20468;-56
2023/08/09 02:42:41;0.00;0.00;0.62;0.00;0.00;0.62;1.70;1.00;;;27.20;28.20;;;;;;2265316;61;20378;-59
2023/08/09 02:45:28;0.00;0.00;0.62;0.00;0.00;0.62;1.40;0.90;;;27.20;28.20;;;;;;2268579;61;20780;-58
2023/08/09 02:48:14;0.00;0.00;0.62;0.00;0.00;0.62;2.50;1.10;;;27.20;28.20;;;;;;2264903;61;20394;-56
2023/08/09 02:50:58;0.00;0.00;0.62;0.00;0.00;0.62;1.80;1.00;;;27.10;28.20;;;;;;2265415;61;20367;-57
2023/08/09 02:53:59;0.00;0.00;0.62;0.00;0.00;0.62;1.40;0.93;;;27.20;28.20;;;;;;2268543;61;20367;-56
2023/08/09 02:56:44;0.00;0.00;0.62;0.00;0.00;0.62;1.80;1.20;;;27.10;28.20;;;;;;2265548;61;20828;-57
2023/08/09 02:59:29;0.00;0.00;0.62;0.00;0.00;0.62;2.23;0.93;;;27.10;28.20;;;;;;2265062;61;20386;-59
2023/08/09 03:02:14;0.00;0.00;0.62;0.00;0.00;0.62;1.50;0.90;;;27.20;28.70;;;;;;2264852;61;20359;-59
2023/08/09 03:05:02;0.00;0.00;0.62;0.00;0.00;0.62;1.50;0.90;;;27.10;28.20;;;;;;2265464;61;20367;-58
2023/08/09 03:07:46;0.00;0.00;0.62;0.00;0.00;0.62;1.50;1.00;;;27.10;28.20;;;;;;2265299;61;20464;-55
2023/08/09 03:10:31;0.00;0.00;0.62;0.00;0.00;0.62;1.77;1.10;;;27.10;28.20;;;;;;2264512;61;20451;-54
2023/08/09 03:13:17;0.00;0.00;0.62;0.00;0.00;0.62;1.70;1.20;;;27.10;28.20;;;;;;2265243;61;20413;-56
2023/08/09 03:16:03;0.00;0.00;0.62;0.00;0.00;0.62;2.13;1.20;;;27.10;28.20;;;;;;2264622;61;20505;-57
2023/08/09 03:18:47;0.00;0.00;0.62;0.00;0.00;0.62;1.77;1.00;;;27.10;28.20;;;;;;2264818;61;20405;-56
2023/08/09 03:21:34;0.00;0.00;0.62;0.00;0.00;0.62;1.70;1.00;;;27.10;28.20;;;;;;2265430;61;20378;-59
2023/08/09 03:24:19;0.00;0.00;0.62;0.00;0.00;0.62;1.53;0.97;;;27.10;28.20;;;;;;2267782;61;20367;-57
2023/08/09 03:27:04;0.00;0.00;0.62;0.00;0.00;0.62;1.80;1.00;;;27.10;28.20;;;;;;2265296;61;20383;-57
2023/08/09 03:29:49;0.00;0.00;0.62;0.00;0.00;0.62;1.80;1.00;;;27.10;28.20;;;;;;2268342;61;20902;-58
2023/08/09 03:32:34;0.00;0.00;0.62;0.00;0.00;0.62;2.00;1.10;;;27.10;28.10;;;;;;2265121;61;20367;-55
2023/08/09 03:35:20;0.00;0.00;0.62;0.00;0.00;0.62;1.50;0.90;;;27.10;28.20;;;;;;2265420;61;20378;-57
2023/08/09 03:38:06;0.00;0.00;0.62;0.00;0.00;0.62;2.07;1.20;;;27.10;28.20;;;;;;2264992;61;20371;-61
2023/08/09 03:40:51;0.00;0.00;0.62;0.00;0.00;0.62;1.77;1.00;;;27.10;28.20;;;;;;2265243;61;20402;-58
2023/08/09 03:43:36;0.00;0.00;0.62;0.00;0.00;0.62;1.50;1.00;;;27.10;28.20;;;;;;2265279;61;20900;-58
2023/08/09 03:46:21;0.00;0.00;0.62;0.00;0.00;0.62;2.00;0.90;;;27.10;28.10;;;;;;2267843;61;20911;-58
2023/08/09 03:49:06;0.00;0.00;0.62;0.00;0.00;0.62;1.80;1.00;;;27.00;28.10;;;;;;2264778;61;20978;-56
2023/08/09 03:51:51;0.00;0.00;0.62;0.00;0.00;0.62;1.70;1.20;;;27.00;28.10;;;;;;2264986;61;20409;-57
2023/08/09 03:54:38;0.00;0.00;0.62;0.00;0.00;0.62;2.73;1.10;;;27.10;28.20;;;;;;2264684;61;20405;-56
2023/08/09 03:57:24;0.00;0.00;0.62;0.00;0.00;0.62;1.50;0.90;;;27.00;28.10;;;;;;2264170;61;20371;-60
2023/08/09 04:00:17;0.00;0.00;0.62;0.00;0.00;0.62;1.60;1.00;;;27.10;28.20;;;;;;2264597;61;20471;-62
2023/08/09 04:03:04;0.00;0.00;0.62;0.00;0.00;0.62;1.93;1.13;;;27.00;28.10;;;;;;2265227;61;20359;-56
2023/08/09 04:05:49;0.00;0.00;0.62;0.00;0.00;0.62;1.80;1.20;;;27.00;28.10;;;;;;2268456;61;20903;-58
2023/08/09 04:08:33;0.00;0.00;0.62;0.00;0.00;0.62;1.90;1.27;;;27.00;28.10;;;;;;2264181;61;20887;-58
2023/08/09 04:11:19;0.00;0.00;0.62;0.00;0.00;0.62;2.10;1.43;;;27.00;28.10;;;;;;2264967;61;20367;-58
2023/08/09 04:14:04;0.00;0.00;0.62;0.00;0.00;0.62;1.50;0.90;;;27.00;28.10;;;;;;2268233;61;20506;-58
2023/08/09 04:16:49;0.00;0.00;0.62;0.00;0.00;0.62;1.93;1.27;;;27.00;28.10;;;;;;2267661;61;20354;-59
2023/08/09 04:19:33;0.00;0.00;0.62;0.00;0.00;0.62;2.37;1.40;;;27.00;28.10;;;;;;2267743;61;20383;-59
2023/08/09 04:22:18;0.00;0.00;0.62;0.00;0.00;0.62;2.10;1.37;;;27.00;28.10;;;;;;2264951;61;20370;-58
2023/08/09 04:25:05;0.00;0.00;0.62;0.00;0.00;0.62;2.27;1.57;;;27.00;28.10;;;;;;2268177;61;20367;-56
2023/08/09 04:27:53;0.00;0.00;0.62;0.00;0.00;0.62;2.30;1.40;;;27.00;28.10;;;;;;2268141;61;20805;-58
2023/08/09 04:30:37;0.00;0.00;0.62;0.00;0.00;0.62;2.30;1.73;;;27.00;28.10;;;;;;2267392;61;20637;-58
2023/08/09 04:33:22;0.00;0.00;0.62;0.00;0.00;0.62;2.60;1.80;;;27.00;28.10;;;;;;2265173;61;20363;-57
2023/08/09 04:36:08;0.00;0.00;0.62;0.00;0.00;0.62;2.47;2.13;;;27.00;28.10;;;;;;2268234;61;20456;-61
2023/08/09 04:38:53;0.00;0.00;0.62;0.00;0.00;0.62;2.70;1.80;;;27.00;28.10;;;;;;2267461;61;20437;-59
2023/08/09 04:41:38;0.00;0.00;0.62;0.00;0.00;0.62;3.10;2.50;;;27.00;28.10;;;;;;2268272;61;20378;-56
2023/08/09 04:44:25;0.00;0.00;0.62;0.00;0.00;0.62;3.10;2.03;;;27.00;28.10;;;;;;2268058;61;20822;-58
2023/08/09 04:47:10;0.00;0.00;0.62;0.00;0.00;0.62;3.63;2.30;;;27.00;28.20;;;;;;2267565;61;20391;-57
2023/08/09 04:49:54;0.00;0.00;0.62;0.00;0.00;0.62;5.00;2.77;;;26.90;28.10;;;;;;2264174;61;20386;-56
2023/08/09 04:52:39;0.00;0.00;0.62;0.00;0.00;0.62;3.20;2.23;;;27.00;28.20;;;;;;2267085;61;20363;-58
2023/08/09 04:55:24;0.00;0.00;0.62;0.00;0.00;0.62;2.80;2.27;;;27.00;28.20;;;;;;2267812;61;20363;-60
2023/08/09 04:58:08;0.00;0.00;0.62;0.00;0.00;0.62;3.00;2.43;;;27.00;28.20;;;;;;2267767;61;20406;-59
2023/08/09 05:00:55;0.00;0.00;0.62;0.00;0.00;0.62;3.27;2.47;;;27.00;28.20;;;;;;2267601;61;20405;-58
2023/08/09 05:03:40;0.00;0.00;0.62;0.00;0.00;0.62;3.67;3.13;;;27.00;28.20;;;;;;2268453;61;20961;-57
2023/08/09 05:06:25;0.00;0.00;0.62;0.00;0.00;0.62;2.90;2.50;;;27.00;28.70;;;;;;2268069;61;20948;-58
2023/08/09 05:09:10;0.00;0.00;0.62;0.00;0.00;0.62;5.40;3.10;;;26.90;28.10;;;;;;2267361;61;20513;-60
2023/08/09 05:11:55;0.00;0.00;0.62;0.00;0.00;0.62;4.13;3.20;;;26.90;28.10;;;;;;2268229;61;20438;-59
2023/08/09 05:14:40;0.00;0.00;0.62;0.00;0.00;0.62;3.73;2.70;;;26.90;28.70;;;;;;2267593;61;20363;-60
2023/08/09 05:17:26;0.00;0.00;0.62;0.00;0.00;0.62;3.90;2.87;;;26.90;28.20;;;;;;2268178;61;20413;-61
2023/08/09 05:20:11;0.00;0.00;0.62;0.00;0.00;0.62;4.00;2.93;;;26.90;28.20;;;;;;2267674;61;20485;-51
2023/08/09 05:22:56;0.00;0.00;0.62;0.00;0.00;0.62;4.60;2.80;;;27.00;28.20;;;;;;2267522;61;20359;-55
2023/08/09 05:25:41;0.00;0.00;0.62;0.00;0.00;0.62;3.57;2.67;;;26.90;28.20;;;;;;2264663;61;20371;-59
2023/08/09 05:28:26;0.00;0.00;0.62;0.00;0.00;0.62;3.50;3.00;;;26.90;28.20;;;;;;2267459;61;20411;-59
2023/08/09 05:31:10;0.00;0.00;0.62;0.00;0.00;0.62;3.60;2.70;;;26.90;28.20;;;;;;2267782;61;20884;-61
2023/08/09 05:33:56;0.00;0.00;0.62;0.00;0.00;0.62;3.37;2.87;;;26.90;28.20;;;;;;2268224;61;20367;-60
2023/08/09 05:36:42;0.00;0.00;0.62;0.00;0.00;0.62;3.70;3.30;;;26.90;28.20;;;;;;2267293;61;20359;-57
2023/08/09 05:39:27;0.00;0.00;0.62;0.00;0.00;0.62;3.40;2.93;;;26.90;28.20;;;;;;2268293;61;20458;-61
2023/08/09 05:42:12;0.00;0.00;0.62;0.00;0.00;0.62;3.27;2.70;;;26.90;28.20;;;;;;2268942;61;20429;-57
2023/08/09 05:44:59;0.00;0.00;0.62;0.00;0.00;0.62;3.10;2.37;;;26.90;28.20;;;;;;2268444;61;20912;-58
2023/08/09 05:47:44;0.00;0.00;0.62;0.00;0.00;0.62;3.43;2.63;;;26.90;28.20;;;;;;2268770;61;20815;-55
2023/08/09 05:50:30;0.00;0.00;0.62;0.00;0.00;0.62;3.63;2.87;;;26.90;28.20;;;;;;2268435;61;20394;-62
2023/08/09 05:53:14;0.00;0.00;0.62;0.00;0.00;0.62;3.23;2.60;;;26.90;28.20;;;;;;2268471;61;20402;-57
2023/08/09 05:55:59;0.00;0.00;0.62;0.00;0.00;0.62;3.60;2.77;;;26.90;28.20;;;;;;2268802;61;20355;-57
2023/08/09 05:58:44;0.00;0.00;0.62;0.00;0.00;0.62;3.17;2.40;;;26.90;28.20;;;;;;2267924;61;20370;-60
2023/08/09 06:01:29;0.00;0.00;0.62;0.00;0.00;0.62;2.20;1.80;;;26.90;28.20;;;;;;2268994;61;20374;-57
2023/08/09 06:04:13;0.00;0.00;0.62;0.00;0.00;0.62;2.93;2.40;;;26.90;28.20;;;;;;2267396;61;20891;-57
2023/08/09 06:07:00;0.00;0.00;0.62;0.00;0.00;0.62;3.13;2.37;;;26.90;28.20;;;;;;2268188;61;20398;-59
2023/08/09 06:09:45;0.00;0.00;0.62;0.00;0.00;0.62;2.70;2.00;;;26.90;28.20;;;;;;2268351;61;20387;-59
2023/08/09 06:12:29;0.00;0.00;0.62;0.00;0.00;0.62;2.80;2.43;;;26.90;28.20;;;;;;2268766;61;20915;-60
2023/08/09 06:15:15;0.00;0.00;0.62;0.00;0.00;0.62;2.90;2.20;;;26.90;28.20;;;;;;2268338;61;20367;-56
2023/08/09 06:17:59;0.00;0.00;0.62;0.00;0.00;0.62;3.33;2.67;;;26.90;28.20;;;;;;2268890;61;20929;-60
2023/08/09 06:20:44;0.00;0.00;0.62;0.00;0.00;0.62;3.50;2.50;;;26.90;28.30;;;;;;2268362;61;20363;-60
2023/08/09 06:23:31;0.00;0.00;0.62;0.00;0.00;0.62;3.20;2.30;;;26.90;28.20;;;;;;2268858;61;20444;-57
2023/08/09 06:26:16;0.00;0.00;0.62;0.00;0.00;0.62;3.20;2.10;;;26.90;28.20;;;;;;2268599;61;20456;-54
2023/08/09 06:29:01;0.00;0.00;0.62;0.00;0.00;0.62;3.90;2.20;;;26.90;28.30;;;;;;2267676;61;20391;-55
2023/08/09 06:31:46;0.00;0.00;0.62;0.00;0.00;0.62;2.40;1.97;;;26.90;28.20;;;;;;2268851;61;20367;-58
2023/08/09 06:34:31;0.00;0.00;0.62;0.00;0.00;0.62;2.30;1.87;;;26.90;28.30;;;;;;2268584;61;20366;-54
2023/08/09 06:37:16;0.00;0.00;0.62;0.00;0.00;0.62;2.90;1.87;;;26.90;28.20;;;;;;2267988;61;20367;-55
2023/08/09 06:40:06;0.00;0.00;0.62;0.00;0.00;0.62;2.90;1.93;;;26.90;28.30;;;;;;2268231;61;20403;-56
2023/08/09 06:42:51;0.00;0.00;0.62;0.00;0.00;0.62;2.70;2.00;;;26.90;28.30;;;;;;2268224;61;20896;-60
2023/08/09 06:45:40;0.00;0.00;0.62;0.00;0.00;0.62;2.90;2.20;;;26.90;28.20;;;;;;2265364;61;20467;-61
2023/08/09 06:48:24;0.00;0.00;0.62;0.00;0.00;0.62;2.47;2.10;;;26.90;28.80;;;;;;2268311;61;20433;-60
2023/08/09 06:51:10;0.00;0.00;0.62;0.00;0.00;0.62;2.27;1.90;;;26.90;28.30;;;;;;2267980;61;20367;-56
2023/08/09 06:53:55;0.00;0.00;0.62;0.00;0.00;0.62;3.63;2.73;;;26.90;28.30;;;;;;2268378;61;20512;-57
2023/08/09 06:56:41;0.00;0.00;0.62;0.00;0.00;0.62;2.50;1.80;;;26.90;28.30;;;;;;2268859;61;20359;-60
2023/08/09 06:59:26;0.00;0.00;0.62;0.00;0.00;0.62;2.20;1.70;;;27.00;28.30;;;;;;2267636;61;20864;-58
2023/08/09 07:02:11;0.00;0.00;0.62;0.00;0.00;0.62;2.47;1.77;;;26.90;28.20;;;;;;2265225;61;20452;-60
2023/08/09 07:05:00;0.00;0.00;0.62;0.00;0.00;0.62;2.43;1.67;;;26.90;28.30;;;;;;2264989;61;20363;-57
2023/08/09 07:07:46;0.00;0.00;0.62;0.00;0.00;0.62;2.50;1.53;;;26.90;28.30;;;;;;2268366;61;20414;-59
2023/08/09 07:10:31;0.00;0.00;0.62;0.00;0.00;0.62;3.00;2.00;;;26.90;28.80;;;;;;2266948;61;20473;-58
2023/08/09 07:13:17;0.00;0.00;0.62;0.00;0.00;0.62;2.03;1.70;;;26.90;28.30;;;;;;2268116;61;20382;-59
2023/08/09 07:16:02;0.00;0.00;0.62;0.00;0.00;0.62;3.17;1.87;;;26.90;28.30;;;;;;2268572;61;20391;-57
2023/08/09 07:18:47;0.00;0.00;0.62;0.00;0.00;0.62;3.00;1.93;;;26.90;28.30;;;;;;2268068;61;20410;-56
2023/08/09 07:21:31;0.00;0.00;0.62;0.00;0.00;0.62;3.23;1.90;;;26.90;28.30;;;;;;2268181;61;20884;-56
2023/08/09 07:24:16;0.00;0.00;0.62;0.00;0.00;0.62;2.47;1.80;;;26.90;28.30;;;;;;2268494;61;20364;-58
2023/08/09 07:27:01;0.00;0.00;0.62;0.00;0.00;0.62;2.30;1.50;;;26.90;28.30;;;;;;2267991;61;20709;-54
2023/08/09 07:29:48;0.00;0.00;0.62;0.00;0.00;0.62;2.07;1.43;;;26.90;28.30;;;;;;2267579;61;20436;-60
2023/08/09 07:32:33;0.00;0.00;0.62;0.00;0.00;0.62;2.40;1.70;;;26.90;28.30;;;;;;2268569;61;20429;-58
2023/08/09 07:35:18;0.00;0.00;0.62;0.00;0.00;0.62;2.70;1.70;;;26.90;28.30;;;;;;2267872;61;20394;-59
2023/08/09 07:38:03;0.00;0.00;0.62;0.00;0.00;0.62;2.20;1.60;;;27.00;28.30;;;;;;2268401;61;20508;-60
2023/08/09 07:40:48;0.00;0.00;0.62;0.00;0.00;0.62;2.53;1.60;;;27.00;28.30;;;;;;2268470;61;20382;-55
2023/08/09 07:43:33;0.00;0.00;0.62;0.00;0.00;0.62;4.40;1.50;;;26.90;28.30;;;;;;2267875;61;20394;-57
2023/08/09 07:46:19;0.00;0.00;0.62;0.00;0.00;0.62;1.90;1.57;;;26.90;28.30;;;;;;2268604;61;20398;-60
2023/08/09 07:49:04;0.00;0.00;0.62;0.00;0.00;0.62;1.87;1.33;;;26.90;28.30;;;;;;2267906;61;20391;-59
2023/08/09 07:51:49;0.00;0.00;0.62;0.00;0.00;0.62;1.77;1.20;;;26.90;28.30;;;;;;2268359;61;20359;-56
2023/08/09 07:54:34;0.00;0.00;0.62;0.00;0.00;0.62;3.10;1.43;;;26.90;28.30;;;;;;2268597;61;20457;-58
2023/08/09 07:57:19;0.00;0.00;0.62;0.00;0.00;0.62;2.83;1.60;;;26.90;28.30;;;;;;2267859;61;20424;-60
2023/08/09 08:00:08;0.00;0.00;0.62;0.00;0.00;0.62;2.83;1.60;;;26.90;28.30;;;;;;2267890;61;20434;-60
2023/08/09 08:03:01;0.00;0.00;0.62;0.00;0.00;0.62;2.10;1.60;;;26.90;28.30;;;;;;2268415;61;20371;-57
2023/08/09 08:05:45;0.00;0.00;0.62;0.00;0.00;0.62;2.03;1.33;;;26.90;28.40;;;;;;2267781;61;20480;-58
2023/08/09 08:08:30;0.00;0.00;0.62;0.00;0.00;0.62;1.90;1.40;;;26.90;28.40;;;;;;2267925;61;20853;-64
2023/08/09 08:11:14;0.00;0.00;0.62;0.00;0.00;0.62;2.00;1.30;;;26.90;28.40;;;;;;2268165;61;20823;-59
2023/08/09 08:13:59;0.00;0.00;0.62;0.00;0.00;0.62;2.90;1.47;;;26.90;28.40;;;;;;2267667;61;20867;-57
2023/08/09 08:16:44;0.00;0.00;0.62;0.00;0.00;0.62;1.90;1.50;;;26.90;28.40;;;;;;2267763;61;20383;-59
2023/08/09 08:19:30;0.00;0.00;0.62;0.00;0.00;0.62;1.70;1.30;;;26.90;28.40;;;;;;2266621;61;20433;-60
2023/08/09 08:22:15;0.00;0.00;0.62;0.00;0.00;0.62;2.80;1.87;;;26.90;28.90;;;;;;2267818;61;20367;-57
2023/08/09 08:24:59;0.00;0.00;0.62;0.00;0.00;0.62;1.80;1.30;;;26.90;28.40;;;;;;2267755;61;20377;-57
2023/08/09 08:27:45;0.00;0.00;0.62;0.00;0.00;0.62;2.10;1.23;;;26.90;28.40;;;;;;2267653;61;20382;-60
2023/08/09 08:30:30;0.00;0.00;0.62;0.00;0.00;0.62;1.80;1.30;;;26.90;28.40;;;;;;2267885;61;20422;-57
2023/08/09 08:33:15;0.00;0.00;0.62;0.00;0.00;0.62;1.70;1.03;;;26.90;28.40;;;;;;2268026;61;20428;-58
2023/08/09 08:36:01;0.00;0.00;0.62;0.00;0.00;0.62;3.00;1.27;;;26.90;28.40;;;;;;2267870;61;20375;-59
2023/08/09 08:38:46;0.00;0.00;0.62;0.00;0.00;0.62;2.90;1.63;;;26.90;28.50;;;;;;2267904;61;20510;-56
2023/08/09 08:41:31;0.00;0.00;0.62;0.00;0.00;0.62;1.70;1.23;;;26.90;28.50;;;;;;2268221;61;20805;-58
2023/08/09 08:44:16;0.00;0.00;0.62;0.00;0.00;0.62;1.97;1.37;;;26.90;28.50;;;;;;2268318;61;20518;-55
2023/08/09 08:47:04;0.00;0.00;0.62;0.00;0.00;0.62;1.87;1.07;;;26.90;28.50;;;;;;2268151;61;20386;-55
2023/08/09 08:49:50;0.00;0.00;0.62;0.00;0.00;0.62;1.87;1.40;;;26.90;28.50;;;;;;2260222;61;20949;-57
2023/08/09 08:52:40;0.00;0.00;0.62;0.00;0.00;0.62;2.00;1.53;;;26.90;28.50;;;;;;2268304;61;20859;-58
2023/08/09 08:55:25;0.00;0.00;0.62;0.00;0.00;0.62;4.13;1.20;;;26.90;28.50;;;;;;2268365;61;20400;-56
2023/08/09 08:58:12;0.00;0.00;0.62;0.00;0.00;0.62;1.90;1.37;;;26.90;28.50;;;;;;2267953;61;20405;-58
2023/08/09 09:00:57;0.00;0.00;0.62;0.00;0.00;0.62;1.80;1.20;;;26.90;28.50;;;;;;2267936;61;20780;-57
2023/08/09 09:03:42;0.00;0.00;0.62;0.00;0.00;0.62;2.23;1.20;;;26.90;28.50;;;;;;2268359;61;20406;-60
2023/08/09 09:06:27;0.00;0.00;0.62;0.00;0.00;0.62;1.90;1.20;;;26.90;28.50;;;;;;2268099;61;20375;-60
2023/08/09 09:09:14;0.00;0.00;0.62;0.00;0.00;0.62;2.20;1.40;;;26.90;28.50;;;;;;2267914;61;20935;-56
2023/08/09 09:12:02;0.00;0.00;0.62;0.00;0.00;0.62;1.90;1.30;;;27.00;28.60;;;;;;2267833;61;20861;-58
2023/08/09 09:14:51;0.00;0.00;0.62;0.00;0.00;0.62;1.73;1.20;;;27.00;29.10;;;;;;2268753;61;20409;-58
2023/08/09 09:17:38;0.00;0.00;0.62;0.00;0.00;0.62;1.77;1.07;;;27.00;28.60;;;;;;2268759;61;20766;-59
2023/08/09 09:20:27;0.00;0.00;0.62;0.00;0.00;0.62;2.20;1.20;;;27.00;28.60;;;;;;2268169;61;20441;-60
2023/08/09 09:23:25;0.00;0.00;0.62;0.00;0.00;0.62;1.83;1.23;;;27.00;28.60;;;;;;2269025;61;20362;-59
2023/08/09 09:26:14;0.00;0.00;0.62;0.00;0.00;0.62;1.87;1.30;;;27.00;28.60;;;;;;2268333;61;20807;-59
2023/08/09 09:28:59;0.00;0.00;0.62;0.00;0.00;0.62;2.53;1.00;;;27.00;28.60;;;;;;2268233;61;20390;-56
2023/08/09 09:31:44;0.00;0.00;0.62;0.00;0.00;0.62;1.80;1.30;;;27.00;28.60;;;;;;2268775;61;20413;-59
2023/08/09 09:34:31;0.00;0.00;0.62;0.00;0.00;0.62;3.10;1.20;;;27.00;28.60;;;;;;2268078;61;20428;-55
2023/08/09 09:37:22;0.00;0.00;0.62;0.00;0.00;0.62;2.03;1.23;;;27.00;28.60;;;;;;2268980;61;20402;-57
2023/08/09 09:40:10;0.00;0.00;0.62;0.00;0.00;0.62;4.30;1.10;;;27.00;28.60;;;;;;2268254;61;20521;-58
2023/08/09 09:42:57;0.00;0.00;0.62;0.00;0.00;0.62;3.00;1.10;;;27.00;28.60;;;;;;2268769;61;20370;-58
2023/08/09 09:45:45;0.00;0.00;0.62;0.00;0.00;0.62;2.23;1.23;;;27.00;28.60;;;;;;2268793;61;20916;-59
2023/08/09 09:48:31;0.00;0.00;0.62;0.00;0.00;0.62;1.70;1.20;;;27.00;28.60;;;;;;2267754;61;20664;-59
2023/08/09 09:51:18;0.00;0.00;0.62;0.00;0.00;0.62;2.03;1.40;;;27.00;28.60;;;;;;2268799;61;20402;-55
2023/08/09 09:54:04;0.00;0.00;0.62;0.00;0.00;0.62;2.30;1.23;;;27.00;28.60;;;;;;2268882;61;20413;-54
2023/08/09 09:56:49;0.00;0.00;0.62;0.00;0.00;0.62;1.40;0.87;;;27.00;28.60;;;;;;2268415;61;20374;-57
2023/08/09 09:59:36;0.00;0.00;0.62;0.00;0.00;0.62;3.10;1.30;;;27.00;28.60;;;;;;2268495;61;20437;-56
2023/08/09 10:02:23;0.00;0.00;0.62;0.00;0.00;0.62;1.50;0.97;;;27.00;28.70;;;;;;2268339;61;20386;-58
2023/08/09 10:05:10;0.00;0.00;0.62;0.00;0.00;0.62;1.93;1.40;;;27.00;28.60;;;;;;2268558;61;20421;-59
2023/08/09 10:07:56;0.00;0.00;0.62;0.00;0.00;0.62;2.40;1.60;;;27.00;28.70;;;;;;2268780;61;20387;-58
2023/08/09 10:10:43;0.00;0.00;0.62;0.00;0.00;0.62;1.70;1.23;;;27.00;29.20;;;;;;2268289;61;20414;-58
2023/08/09 10:13:30;0.00;0.00;0.62;0.00;0.00;0.62;1.90;1.20;;;27.10;29.20;;;;;;2268717;61;20362;-57
2023/08/09 10:16:19;0.00;0.00;0.62;0.00;0.00;0.62;1.70;1.20;;;27.00;28.70;;;;;;2269030;61;20409;-58
2023/08/09 10:19:10;0.00;0.00;0.62;0.00;0.00;0.62;1.50;1.00;;;27.10;29.30;;;;;;2268103;61;21058;-58
2023/08/09 10:21:55;0.00;0.00;0.62;0.00;0.00;0.62;2.27;1.47;;;27.10;28.70;;;;;;2268620;61;20833;-57
2023/08/09 10:24:44;0.00;0.00;0.62;0.00;0.00;0.62;1.70;1.00;;;27.10;28.70;;;;;;2268547;61;20413;-61
2023/08/09 10:27:49;0.00;0.00;0.62;0.00;0.00;0.62;3.00;1.40;;;27.10;28.80;;;;;;2268487;61;20386;-57
2023/08/09 10:30:45;0.00;0.00;0.62;0.00;0.00;0.62;2.23;1.27;;;27.10;28.70;;;;;;2268251;61;20395;-56
2023/08/09 10:33:32;0.00;0.00;0.62;0.00;0.00;0.62;2.00;1.20;;;27.10;28.80;;;;;;2268327;61;20812;-60
2023/08/09 10:36:31;0.00;0.00;0.62;0.00;0.00;0.62;3.13;1.50;;;27.10;28.70;;;;;;2268770;61;20383;-62
2023/08/09 10:39:21;0.00;0.00;0.62;0.00;0.00;0.62;1.60;0.90;;;27.20;28.80;;;;;;2268119;61;20433;-60
2023/08/09 10:42:08;0.00;0.00;0.62;0.00;0.00;0.62;1.70;1.20;;;27.10;28.80;;;;;;2268287;61;20355;-59
2023/08/09 10:45:03;0.00;0.00;0.62;0.00;0.00;0.62;1.73;0.93;;;27.10;28.70;;;;;;2268604;61;20371;-57
2023/08/09 10:47:49;0.00;0.00;0.62;0.00;0.00;0.62;1.80;1.13;;;27.20;28.80;;;;;;2268116;61;20991;-59
2023/08/09 10:50:35;0.00;0.00;0.62;0.00;0.00;0.62;1.77;1.10;;;27.20;28.80;;;;;;2268217;61;20429;-56
2023/08/09 10:53:23;0.00;0.00;0.62;0.00;0.00;0.62;2.77;1.30;;;27.20;28.80;;;;;;2268676;61;20367;-58
2023/08/09 10:56:31;0.00;0.00;0.62;0.00;0.00;0.62;2.03;1.30;;;27.20;28.80;;;;;;2268042;61;20362;-55